createdAt,value
2019-04-29T00:01:21.446Z,14.53
2019-04-29T00:03:51.170Z,4.13
2019-04-29T00:06:21.831Z,1.37
2019-04-29T00:08:51.473Z,5.83
2019-04-29T00:11:21.380Z,7.07
2019-04-29T00:13:51.398Z,2.37
2019-04-29T00:16:29.771Z,7.07
2019-04-29T00:19:13.423Z,5.03
2019-04-29T00:21:43.148Z,4.43
2019-04-29T00:24:12.891Z,5.97
2019-04-29T00:26:42.623Z,3.67
2019-04-29T00:29:12.289Z,3.00
2019-04-29T00:31:41.948Z,5.43
2019-04-29T00:34:11.608Z,3.73
2019-04-29T00:36:54.020Z,2.23
2019-04-29T00:39:44.896Z,2.90
2019-04-29T00:42:36.414Z,2.70
2019-04-29T00:45:06.856Z,2.13
2019-04-29T00:47:36.520Z,5.43
2019-04-29T00:50:06.754Z,2.67
2019-04-29T00:52:36.401Z,3.60
2019-04-29T00:55:10.802Z,4.00
2019-04-29T00:57:40.455Z,2.47
2019-04-29T01:00:12.511Z,4.20
2019-04-29T01:02:42.199Z,4.73
2019-04-29T01:05:12.206Z,2.73
2019-04-29T01:07:41.861Z,2.43
2019-04-29T01:10:12.468Z,1.83
2019-04-29T01:12:42.359Z,2.63
2019-04-29T01:15:12.499Z,4.03
2019-04-29T01:17:42.221Z,1.40
2019-04-29T01:20:12.449Z,3.33
2019-04-29T01:22:42.882Z,7.13
2019-04-29T01:25:12.888Z,1.90
2019-04-29T01:27:49.308Z,3.27
2019-04-29T01:31:05.882Z,6.03
2019-04-29T01:33:35.594Z,3.33
2019-04-29T01:36:23.033Z,1.90
2019-04-29T01:38:54.513Z,1.73
2019-04-29T01:41:26.375Z,1.73
2019-04-29T01:43:59.450Z,3.67
2019-04-29T01:46:29.658Z,2.83
2019-04-29T01:48:59.456Z,8.83
2019-04-29T01:51:29.202Z,4.90
2019-04-29T01:53:58.921Z,4.57
2019-04-29T01:56:28.583Z,4.17
2019-04-29T01:58:58.301Z,2.73
2019-04-29T02:01:27.954Z,5.83
2019-04-29T02:03:58.680Z,2.37
2019-04-29T02:06:28.533Z,5.50
2019-04-29T02:08:58.187Z,2.97
2019-04-29T02:11:27.850Z,3.20
2019-04-29T02:13:57.512Z,4.40
2019-04-29T02:16:27.188Z,3.70
2019-04-29T02:18:56.851Z,3.60
2019-04-29T02:21:26.522Z,4.90
2019-04-29T02:24:05.366Z,3.97
2019-04-29T02:26:35.041Z,1.97
2019-04-29T02:29:04.832Z,5.13
2019-04-29T02:31:42.342Z,2.20
2019-04-29T02:34:12.073Z,3.77
2019-04-29T02:36:41.811Z,1.90
2019-04-29T02:39:29.440Z,0.70
2019-04-29T02:42:27.153Z,5.17
2019-04-29T02:45:00.129Z,1.30
2019-04-29T02:47:29.798Z,5.63
2019-04-29T02:49:59.447Z,1.97
2019-04-29T02:52:29.114Z,1.77
2019-04-29T02:55:01.182Z,6.03
2019-04-29T02:57:38.690Z,1.00
2019-04-29T03:00:19.674Z,3.53
2019-04-29T03:02:54.737Z,2.73
2019-04-29T03:05:27.155Z,2.90
2019-04-29T03:07:57.164Z,5.30
2019-04-29T03:10:26.830Z,2.30
2019-04-29T03:12:56.495Z,2.67
2019-04-29T03:15:31.237Z,1.90
2019-04-29T03:18:02.105Z,2.33
2019-04-29T03:20:37.158Z,2.97
2019-04-29T03:23:15.209Z,1.67
2019-04-29T03:25:44.928Z,5.23
2019-04-29T03:28:14.619Z,3.47
2019-04-29T03:30:44.297Z,4.17
2019-04-29T03:33:14.102Z,3.10
2019-04-29T03:35:43.854Z,7.03
2019-04-29T03:38:13.512Z,6.73
2019-04-29T03:40:44.285Z,6.50
2019-04-29T03:43:13.944Z,4.57
2019-04-29T03:45:43.585Z,3.90
2019-04-29T03:48:13.252Z,4.23
2019-04-29T03:50:42.916Z,7.17
2019-04-29T03:53:12.590Z,7.03
2019-04-29T03:55:42.231Z,6.70
2019-04-29T03:58:12.964Z,10.67
2019-04-29T04:00:44.491Z,3.57
2019-04-29T04:03:21.530Z,5.87
2019-04-29T04:06:08.891Z,4.40
2019-04-29T04:08:41.926Z,3.33
2019-04-29T04:11:11.568Z,4.83
2019-04-29T04:13:41.260Z,2.50
2019-04-29T04:16:15.473Z,6.23
2019-04-29T04:18:45.122Z,8.20
2019-04-29T04:21:14.770Z,4.57
2019-04-29T04:23:44.451Z,5.60
2019-04-29T04:26:14.109Z,7.33
2019-04-29T04:28:43.792Z,7.13
2019-04-29T04:31:13.478Z,2.50
2019-04-29T04:33:43.141Z,7.53
2019-04-29T04:36:12.845Z,9.17
2019-04-29T04:38:42.510Z,8.40
2019-04-29T04:41:12.163Z,5.77
2019-04-29T04:43:41.836Z,5.80
2019-04-29T04:46:11.497Z,6.10
2019-04-29T04:48:41.149Z,5.93
2019-04-29T04:51:10.818Z,5.53
2019-04-29T04:53:40.472Z,5.57
2019-04-29T04:56:10.211Z,7.53
2019-04-29T04:58:39.960Z,4.77
2019-04-29T05:01:09.605Z,4.80
2019-04-29T05:03:39.321Z,14.93
2019-04-29T05:06:09.173Z,7.23
2019-04-29T05:08:38.819Z,4.93
2019-04-29T05:11:08.501Z,11.00
2019-04-29T05:13:38.147Z,7.77
2019-04-29T05:16:07.823Z,4.03
2019-04-29T05:18:37.478Z,4.00
2019-04-29T05:21:07.149Z,9.30
2019-04-29T05:23:36.803Z,5.90
2019-04-29T05:26:06.483Z,8.90
2019-04-29T05:28:36.130Z,2.77
2019-04-29T05:31:05.882Z,5.87
2019-04-29T05:33:35.538Z,5.80
2019-04-29T05:36:17.247Z,6.33
2019-04-29T05:38:55.740Z,4.53
2019-04-29T05:41:30.217Z,6.07
2019-04-29T05:44:19.018Z,6.93
2019-04-29T05:46:57.052Z,5.47
2019-04-29T05:49:32.021Z,4.57
2019-04-29T05:52:21.157Z,9.17
2019-04-29T05:54:50.804Z,6.97
2019-04-29T05:57:25.215Z,8.90
2019-04-29T05:59:51.795Z,9.57
2019-04-29T06:02:23.575Z,3.90
2019-04-29T06:04:54.000Z,9.57
2019-04-29T06:07:26.781Z,10.57
2019-04-29T06:09:55.311Z,13.47
2019-04-29T06:12:24.971Z,6.97
2019-04-29T06:14:54.644Z,9.23
2019-04-29T06:17:24.317Z,6.13
2019-04-29T06:19:53.967Z,9.93
2019-04-29T06:22:23.639Z,16.67
2019-04-29T06:24:53.309Z,9.57
2019-04-29T06:27:22.982Z,9.70
2019-04-29T06:29:52.760Z,7.80
2019-04-29T06:32:24.825Z,10.17
2019-04-29T06:34:53.741Z,4.93
2019-04-29T06:37:23.404Z,11.50
2019-04-29T06:39:53.067Z,16.07
2019-04-29T06:42:22.727Z,11.80
2019-04-29T06:44:52.390Z,13.90
2019-04-29T06:47:22.062Z,11.50
2019-04-29T06:49:51.723Z,15.07
2019-04-29T06:52:21.399Z,19.57
2019-04-29T06:54:51.065Z,14.30
2019-04-29T06:57:20.735Z,20.53
2019-04-29T06:59:50.390Z,17.27
2019-04-29T07:02:20.140Z,13.63
2019-04-29T07:04:49.797Z,19.53
2019-04-29T07:07:19.479Z,14.63
2019-04-29T07:09:49.153Z,11.67
2019-04-29T07:12:18.835Z,14.73
2019-04-29T07:14:48.565Z,12.67
2019-04-29T07:17:18.247Z,18.53
2019-04-29T07:19:47.934Z,16.47
2019-04-29T07:22:20.879Z,16.13
2019-04-29T07:24:49.037Z,20.63
2019-04-29T07:27:18.757Z,23.87
2019-04-29T07:29:48.491Z,21.07
2019-04-29T07:32:18.170Z,15.30
2019-04-29T07:34:47.876Z,19.60
2019-04-29T07:37:17.563Z,19.33
2019-04-29T07:39:47.244Z,18.80
2019-04-29T07:42:16.976Z,16.83
2019-04-29T07:45:05.681Z,22.80
2019-04-29T07:47:36.337Z,18.50
2019-04-29T07:50:06.859Z,13.97
2019-04-29T07:52:36.559Z,16.63
2019-04-29T07:55:06.799Z,17.60
2019-04-29T07:57:36.499Z,16.20
2019-04-29T08:00:08.544Z,20.20
2019-04-29T08:02:38.251Z,18.40
2019-04-29T08:05:08.365Z,19.83
2019-04-29T08:07:39.087Z,21.30
2019-04-29T08:10:22.785Z,20.07
2019-04-29T08:12:43.234Z,24.93
2019-04-29T08:15:13.355Z,23.93
2019-04-29T08:17:43.019Z,26.93
2019-04-29T08:20:13.139Z,19.00
2019-04-29T08:22:42.849Z,17.87
2019-04-29T08:25:12.853Z,20.13
2019-04-29T08:27:43.867Z,14.17
2019-04-29T08:30:14.025Z,16.50
2019-04-29T08:32:43.752Z,17.43
2019-04-29T08:35:13.434Z,16.97
2019-04-29T08:37:43.103Z,23.03
2019-04-29T08:40:16.193Z,18.97
2019-04-29T08:42:50.772Z,18.97
2019-04-29T08:45:28.543Z,18.87
2019-04-29T08:47:58.695Z,16.87
2019-04-29T08:50:28.438Z,17.57
2019-04-29T08:52:58.099Z,15.50
2019-04-29T08:55:30.885Z,19.73
2019-04-29T08:57:59.211Z,13.60
2019-04-29T09:00:28.880Z,20.60
2019-04-29T09:02:58.555Z,17.37
2019-04-29T09:05:28.388Z,15.90
2019-04-29T09:07:59.119Z,14.37
2019-04-29T09:10:33.066Z,20.50
2019-04-29T09:13:01.321Z,16.27
2019-04-29T09:15:30.997Z,18.10
2019-04-29T09:18:00.675Z,14.77
2019-04-29T09:20:30.340Z,16.70
2019-04-29T09:23:03.351Z,20.30
2019-04-29T09:25:42.492Z,17.90
2019-04-29T09:28:17.978Z,13.80
2019-04-29T09:30:45.077Z,13.43
2019-04-29T09:33:14.844Z,15.30
2019-04-29T09:35:44.651Z,20.67
2019-04-29T09:38:14.330Z,17.27
2019-04-29T09:40:54.568Z,12.20
2019-04-29T09:43:39.726Z,17.40
2019-04-29T09:46:18.527Z,11.53
2019-04-29T09:48:47.953Z,15.27
2019-04-29T09:51:22.135Z,16.73
2019-04-29T09:53:49.163Z,13.77
2019-04-29T09:56:18.865Z,13.80
2019-04-29T09:58:50.328Z,15.50
2019-04-29T10:01:36.856Z,14.97
2019-04-29T10:04:16.792Z,16.40
2019-04-29T10:06:47.813Z,12.33
2019-04-29T10:09:17.705Z,10.77
2019-04-29T10:11:47.390Z,10.77
2019-04-29T10:14:17.046Z,13.17
2019-04-29T10:17:04.286Z,11.87
2019-04-29T10:19:55.752Z,13.70
2019-04-29T10:22:25.423Z,5.10
2019-04-29T10:24:55.092Z,10.20
2019-04-29T10:27:24.841Z,11.67
2019-04-29T10:29:57.114Z,8.27
2019-04-29T10:32:26.913Z,11.37
2019-04-29T10:34:56.568Z,11.53
2019-04-29T10:37:31.434Z,14.03
2019-04-29T10:40:11.250Z,11.10
2019-04-29T10:43:02.276Z,16.00
2019-04-29T10:45:43.747Z,16.00
2019-04-29T10:48:20.488Z,15.60
2019-04-29T10:50:52.624Z,17.23
2019-04-29T10:53:23.434Z,13.60
2019-04-29T10:55:53.510Z,12.17
2019-04-29T10:58:30.230Z,13.57
2019-04-29T11:02:01.322Z,19.70
2019-04-29T11:04:31.619Z,14.23
2019-04-29T11:07:13.564Z,15.33
2019-04-29T11:09:52.789Z,16.63
2019-04-29T11:12:22.425Z,15.97
2019-04-29T11:14:52.102Z,19.20
2019-04-29T11:17:24.248Z,15.70
2019-04-29T11:19:54.494Z,15.17
2019-04-29T11:22:28.449Z,15.73
2019-04-29T11:25:15.723Z,18.43
2019-04-29T11:27:49.628Z,16.30
2019-04-29T11:30:23.039Z,10.90
2019-04-29T11:33:10.620Z,13.77
2019-04-29T11:36:03.908Z,15.07
2019-04-29T11:38:33.415Z,15.23
2019-04-29T11:41:02.197Z,19.40
2019-04-29T11:43:32.055Z,17.67
2019-04-29T11:46:01.777Z,18.73
2019-04-29T11:48:31.620Z,16.53
2019-04-29T11:51:14.098Z,20.60
2019-04-29T11:53:43.771Z,9.03
2019-04-29T11:56:13.438Z,18.00
2019-04-29T11:58:49.074Z,17.47
2019-04-29T12:01:51.712Z,21.27
2019-04-29T12:04:32.823Z,14.17
2019-04-29T12:06:59.906Z,20.70
2019-04-29T12:09:30.564Z,20.37
2019-04-29T12:12:01.116Z,20.17
2019-04-29T12:14:48.100Z,20.77
2019-04-29T12:17:39.509Z,17.87
2019-04-29T12:20:17.621Z,15.47
2019-04-29T12:22:48.902Z,19.23
2019-04-29T12:25:18.883Z,18.47
2019-04-29T12:27:52.787Z,16.77
2019-04-29T12:30:22.008Z,17.13
2019-04-29T12:33:03.577Z,18.60
2019-04-29T12:35:52.041Z,15.20
2019-04-29T12:38:40.126Z,19.43
2019-04-29T12:41:31.600Z,17.07
2019-04-29T12:44:15.200Z,18.53
2019-04-29T12:46:51.430Z,16.83
2019-04-29T12:49:21.177Z,19.40
2019-04-29T12:51:50.852Z,19.30
2019-04-29T12:54:20.586Z,15.13
2019-04-29T12:56:50.348Z,16.80
2019-04-29T12:59:20.229Z,17.30
2019-04-29T13:02:05.319Z,16.40
2019-04-29T13:04:49.880Z,15.10
2019-04-29T13:07:34.458Z,13.63
2019-04-29T13:10:13.880Z,17.20
2019-04-29T13:12:44.531Z,16.27
2019-04-29T13:15:33.367Z,16.90
2019-04-29T13:18:14.311Z,16.53
2019-04-29T13:20:45.642Z,15.70
2019-04-29T13:23:19.529Z,14.23
2019-04-29T13:25:44.716Z,16.93
2019-04-29T13:28:29.229Z,20.30
2019-04-29T13:30:46.662Z,17.27
2019-04-29T13:33:17.010Z,16.47
2019-04-29T13:35:48.355Z,15.37
2019-04-29T13:38:18.393Z,14.23
2019-04-29T13:40:48.298Z,14.80
2019-04-29T13:43:20.748Z,14.43
2019-04-29T13:45:57.814Z,12.67
2019-04-29T13:48:55.826Z,18.43
2019-04-29T13:51:36.063Z,18.83
2019-04-29T13:53:55.379Z,15.23
2019-04-29T13:56:33.195Z,14.10
2019-04-29T13:58:57.954Z,15.07
2019-04-29T14:02:01.284Z,11.43
2019-04-29T14:04:27.594Z,18.73
2019-04-29T14:06:57.761Z,15.70
2019-04-29T14:09:27.619Z,17.10
2019-04-29T14:12:02.123Z,12.97
2019-04-29T14:14:28.683Z,14.97
2019-04-29T14:17:17.232Z,12.67
2019-04-29T14:19:45.056Z,13.07
2019-04-29T14:22:01.193Z,10.87
2019-04-29T14:24:30.862Z,13.53
2019-04-29T14:27:00.548Z,14.97
2019-04-29T14:29:30.445Z,15.17
2019-04-29T14:32:01.342Z,15.30
2019-04-29T14:34:38.050Z,16.33
2019-04-29T14:37:21.356Z,10.20
2019-04-29T14:39:39.099Z,10.80
2019-04-29T14:42:17.194Z,11.60
2019-04-29T14:45:06.872Z,13.67
2019-04-29T14:47:42.714Z,12.50
2019-04-29T14:50:15.542Z,14.20
2019-04-29T14:52:44.667Z,14.50
2019-04-29T14:55:20.082Z,11.67
2019-04-29T14:57:46.996Z,14.23
2019-04-29T15:00:27.210Z,15.30
2019-04-29T15:03:00.771Z,14.07
2019-04-29T15:05:28.313Z,11.73
2019-04-29T15:07:58.015Z,14.23
2019-04-29T15:10:31.249Z,13.07
2019-04-29T15:13:19.312Z,15.57
2019-04-29T15:16:03.743Z,14.27
2019-04-29T15:18:50.176Z,15.37
2019-04-29T15:21:33.762Z,11.77
2019-04-29T15:24:04.048Z,13.37
2019-04-29T15:26:33.737Z,14.63
2019-04-29T15:29:03.465Z,12.90
2019-04-29T15:31:33.190Z,13.20
2019-04-29T15:34:02.941Z,13.43
2019-04-29T15:36:34.822Z,14.10
2019-04-29T15:39:11.210Z,13.33
2019-04-29T15:41:38.801Z,12.60
2019-04-29T15:44:13.825Z,14.20
2019-04-29T15:46:46.204Z,14.70
2019-04-29T15:49:11.472Z,16.53
2019-04-29T15:51:44.179Z,14.57
2019-04-29T15:54:14.442Z,14.33
2019-04-29T15:56:44.099Z,15.83
2019-04-29T15:59:13.914Z,14.47
2019-04-29T16:01:44.109Z,15.67
2019-04-29T16:04:20.921Z,12.03
2019-04-29T16:06:58.773Z,14.27
2019-04-29T16:09:51.891Z,16.77
2019-04-29T16:12:22.839Z,13.37
2019-04-29T16:14:52.636Z,12.13
2019-04-29T16:17:22.337Z,14.13
2019-04-29T16:19:51.998Z,14.60
2019-04-29T16:22:22.234Z,12.70
2019-04-29T16:24:58.928Z,12.97
2019-04-29T16:27:23.512Z,15.33
2019-04-29T16:29:54.267Z,13.53
2019-04-29T16:32:32.641Z,10.70
2019-04-29T16:35:02.324Z,15.40
2019-04-29T16:37:33.367Z,14.50
2019-04-29T16:40:03.167Z,12.87
2019-04-29T16:42:43.146Z,12.03
2019-04-29T16:45:14.369Z,12.70
2019-04-29T16:47:47.459Z,11.83
2019-04-29T16:50:15.841Z,10.23
2019-04-29T16:52:45.774Z,14.03
2019-04-29T16:55:15.532Z,14.43
2019-04-29T16:57:46.159Z,12.37
2019-04-29T17:00:20.139Z,11.47
2019-04-29T17:02:50.088Z,11.53
2019-04-29T17:05:19.833Z,7.90
2019-04-29T17:07:49.485Z,9.20
2019-04-29T17:10:28.289Z,11.83
2019-04-29T17:12:57.951Z,13.93
2019-04-29T17:15:28.063Z,12.70
2019-04-29T17:17:57.728Z,11.60
2019-04-29T17:20:27.403Z,12.90
2019-04-29T17:22:57.231Z,10.23
2019-04-29T17:25:26.980Z,8.77
2019-04-29T17:28:24.291Z,10.83
2019-04-29T17:31:02.138Z,10.60
2019-04-29T17:33:57.076Z,10.77
2019-04-29T17:36:27.312Z,7.07
2019-04-29T17:38:57.028Z,10.00
2019-04-29T17:41:26.673Z,9.13
2019-04-29T17:44:20.030Z,10.77
2019-04-29T17:46:56.436Z,9.40
2019-04-29T17:49:35.318Z,10.23
2019-04-29T17:52:09.051Z,8.20
2019-04-29T17:54:41.286Z,7.50
2019-04-29T17:57:29.206Z,7.47
2019-04-29T18:00:26.077Z,8.23
2019-04-29T18:03:15.176Z,7.73
2019-04-29T18:06:05.474Z,7.93
2019-04-29T18:08:44.882Z,7.77
2019-04-29T18:11:15.053Z,9.80
2019-04-29T18:13:45.850Z,7.93
2019-04-29T18:16:23.789Z,9.93
2019-04-29T18:19:15.778Z,8.50
2019-04-29T18:22:08.818Z,8.57
2019-04-29T18:24:45.528Z,7.83
2019-04-29T18:27:17.334Z,9.30
2019-04-29T18:29:47.104Z,7.97
2019-04-29T18:32:16.780Z,10.83
2019-04-29T18:34:46.512Z,9.10
2019-04-29T18:37:16.782Z,9.40
2019-04-29T18:39:46.499Z,9.07
2019-04-29T18:42:16.251Z,8.97
2019-04-29T18:44:54.977Z,8.30
2019-04-29T18:47:22.657Z,7.53
2019-04-29T18:49:49.696Z,8.70
2019-04-29T18:52:25.902Z,8.37
2019-04-29T18:54:50.721Z,6.57
2019-04-29T18:57:30.003Z,7.50
2019-04-29T18:59:51.739Z,5.40
2019-04-29T19:02:21.416Z,6.67
2019-04-29T19:04:56.848Z,9.80
2019-04-29T19:08:13.937Z,7.80
2019-04-29T19:10:40.051Z,7.20
2019-04-29T19:13:12.999Z,9.60
2019-04-29T19:15:45.045Z,9.83
2019-04-29T19:18:17.423Z,10.20
2019-04-29T19:20:47.846Z,9.33
2019-04-29T19:23:22.536Z,9.50
2019-04-29T19:25:49.852Z,7.87
2019-04-29T19:28:29.354Z,8.93
2019-04-29T19:30:51.021Z,6.53
2019-04-29T19:33:20.710Z,7.20
2019-04-29T19:44:55.966Z,10.30
2019-04-29T19:47:55.688Z,8.30
2019-04-29T19:50:25.755Z,6.73
2019-04-29T19:52:55.668Z,5.77
2019-04-29T19:55:27.843Z,5.87
2019-04-29T19:57:57.556Z,6.27
2019-04-29T20:00:29.295Z,5.87
2019-04-29T20:02:59.624Z,4.37
2019-04-29T20:05:41.408Z,6.93
2019-04-29T20:08:19.254Z,9.87
2019-04-29T20:10:48.052Z,5.27
2019-04-29T20:13:15.821Z,5.87
2019-04-29T20:15:55.733Z,4.10
2019-04-29T20:18:40.392Z,7.73
2019-04-29T20:21:24.929Z,7.73
2019-04-29T20:23:46.754Z,4.50
2019-04-29T20:26:23.393Z,3.63
2019-04-29T20:28:51.133Z,5.70
2019-04-29T20:31:22.194Z,5.03
2019-04-29T20:33:51.365Z,2.63
2019-04-29T20:36:37.415Z,3.03
2019-04-29T20:38:53.378Z,3.63
2019-04-29T20:41:37.768Z,3.47
2019-04-29T20:43:56.202Z,2.47
2019-04-29T20:46:34.264Z,5.87
2019-04-29T20:48:59.624Z,3.97
2019-04-29T20:51:48.802Z,5.77
2019-04-29T20:54:15.827Z,2.97
2019-04-29T20:56:46.956Z,3.17
2019-04-29T20:59:15.748Z,11.47
2019-04-29T21:01:52.016Z,5.83
2019-04-29T21:04:31.281Z,4.93
2019-04-29T21:07:01.859Z,8.87
2019-04-29T21:09:30.035Z,4.60
2019-04-29T21:12:10.570Z,4.80
2019-04-29T21:14:46.463Z,2.57
2019-04-29T21:17:27.971Z,10.03
2019-04-29T21:19:47.243Z,18.17
2019-04-29T21:22:21.972Z,6.60
2019-04-29T21:24:49.431Z,6.47
2019-04-29T21:27:22.571Z,4.37
2019-04-29T21:29:53.990Z,5.43
2019-04-29T21:32:34.598Z,1.07
2019-04-29T21:37:32.203Z,1.40
2019-04-29T21:40:14.832Z,1.57
2019-04-29T21:43:13.672Z,0.77
2019-04-29T21:45:45.018Z,2.53
2019-04-29T21:48:12.823Z,2.20
2019-04-29T21:50:42.518Z,1.43
2019-04-29T21:53:12.208Z,1.60
2019-04-29T21:55:41.907Z,0.77
2019-04-29T21:58:11.684Z,1.60
2019-04-29T22:00:41.362Z,0.70
2019-04-29T22:03:12.779Z,0.73
2019-04-29T22:05:42.636Z,1.40
2019-04-29T22:08:16.147Z,0.50
2019-04-29T22:10:45.173Z,2.30
2019-04-29T22:13:15.037Z,0.83
2019-04-29T22:15:45.583Z,0.43
2019-04-29T22:18:17.819Z,2.27
2019-04-29T22:20:47.662Z,0.57
2019-04-29T22:23:18.575Z,1.60
2019-04-29T22:25:48.727Z,0.63
2019-04-29T22:28:19.865Z,1.60
2019-04-29T22:30:54.818Z,1.03
2019-04-29T22:33:22.637Z,3.73
2019-04-29T22:35:52.501Z,0.30
2019-04-29T22:38:22.263Z,8.10
2019-04-29T22:40:54.994Z,0.30
2019-04-29T22:43:44.537Z,0.30
2019-04-29T22:46:17.285Z,0.57
2019-04-29T22:48:48.707Z,6.03
2019-04-29T22:51:18.815Z,0.70
2019-04-29T22:53:49.112Z,1.80
2019-04-29T22:56:19.121Z,0.20
2019-04-29T22:58:48.903Z,0.23
2019-04-29T23:01:18.576Z,0.73
2019-04-29T23:03:48.454Z,0.30
2019-04-29T23:06:18.324Z,0.10
2019-04-29T23:08:48.087Z,1.07
2019-04-29T23:11:17.791Z,0.47
2019-04-29T23:13:49.082Z,0.83
2019-04-29T23:16:19.026Z,0.40
2019-04-29T23:18:48.764Z,0.37
2019-04-29T23:21:46.790Z,0.20
2019-04-29T23:24:51.340Z,5.60
2019-04-29T23:27:19.936Z,0.60
2019-04-29T23:29:49.777Z,2.97
2019-04-29T23:32:19.707Z,3.20
2019-04-29T23:34:49.531Z,5.70
2019-04-29T23:37:23.756Z,0.50
2019-04-29T23:39:52.117Z,0.27
2019-04-29T23:42:21.888Z,0.53
2019-04-29T23:44:52.510Z,0.73
2019-04-29T23:47:22.843Z,0.30
2019-04-29T23:49:53.021Z,0.87
2019-04-29T23:52:23.077Z,0.30
2019-04-29T23:54:52.823Z,1.37
2019-04-29T23:57:47.701Z,0.50
